• Join FlightAware (Why Join?)
  • Login
  • US Flag 
09:00PM EDT


 

Airport Tracker/Info


-or-


 

Live Flight TrackerFlight Track Log ✈ BOE236 ✈ 15-Feb-2012 ✈ KSEA - KBFI

Flight Track Log - Related Links

Times and Time Zones

All times are in EST time to prevent confusion due to time zone crossing. See the BOE236 flight status page for this flight to view local times or setup timezone preferences in your user account.

Time Position Orientation Groundspeed Altitude Reporting Facility
EST Latitude Longitude Course Direction KTS MPH feet Rate Location/Type
12:35AM 47.4325 -122.3086 179° South 131 151 1,400  Level Seattle Center
12:35AM 47.4175 -122.3083 181° South 138 159 2,100 1,800 Climbing Seattle Center
12:36AM 47.3600 -122.3100 222° Southwest 219 252 4,000 2,580 Climbing Seattle Center
12:37AM 47.3136 -122.3706 266° West 260 299 7,400 3,060 Climbing Seattle Center
12:38AM 47.3078 -122.4797 272° West 273 314 10,300 2,280 Climbing Seattle Center
12:39AM 47.3111 -122.6031 272° West 310 357 12,100 2,280 Climbing Seattle Center
12:40AM 47.3142 -122.7414 253° West 343 395 15,000 2,820 Climbing Seattle Center
12:41AM 47.2861 -122.8778 249° West 355 409 17,900 2,460 Climbing Seattle Center
12:42AM 47.2489 -123.0200 221° Southwest 374 430 20,100 2,460 Climbing Seattle Center
12:43AM 47.1503 -123.1456 206° Southwest 403 464 22,900 2,640 Climbing Seattle Center
12:44AM 47.0464 -123.2203 182° South 428 493 25,500 2,340 Climbing Seattle Center
12:45AM 46.9214 -123.2256 181° South 457 526 27,700 1,980 Climbing Seattle Center
12:46AM 46.7936 -123.2292 183° South 462 532 29,600 1,860 Climbing Seattle Center
12:47AM 46.6606 -123.2408 182° South 479 551 31,500 1,680 Climbing Seattle Center
12:48AM 46.5239 -123.2489 181° South 491 565 33,000 1,380 Climbing Seattle Center
12:49AM 46.3764 -123.2533 181° South 513 590 34,400 1,500 Climbing Seattle Center
12:50AM 46.2286 -123.2556 181° South 527 606 36,100 1,560 Climbing Seattle Center
12:51AM 46.0822 -123.2600 181° South 527 606 37,600 1,440 Climbing Seattle Center
12:52AM 45.9372 -123.2625 181° South 523 602 39,100 1,380 Climbing Seattle Center
12:53AM 45.7928 -123.2669 181° South 521 600 40,400 900 Climbing Seattle Center
12:54AM 45.6486 -123.2717 181° South 519 597 41,000 240 Climbing Seattle Center
12:55AM 45.5067 -123.2769 181° South 514 592 41,000  Level Seattle Center
12:56AM 45.3653 -123.2800 181° South 508 585 41,000  Level Seattle Center
12:57AM 45.1958 -123.2850 181° South 506 582 41,000  Level Seattle Center
12:58AM 45.0803 -123.2892 181° South 510 587 41,000  Level Seattle Center
12:59AM 44.9347 -123.2931 182° South 514 592 41,000  Level Seattle Center
01:00AM 44.7903 -123.2989 181° South 510 587 41,000  Level Seattle Center
01:01AM 44.6469 -123.3036 181° South 509 586 41,000  Level Seattle Center
01:02AM 44.5042 -123.3083 181° South 511 588 41,000  Level Seattle Center
01:03AM 44.3611 -123.3133 181° South 512 589 41,000  Level Seattle Center
01:04AM 44.1900 -123.3178 182° South 513 590 41,000  Level Seattle Center
01:05AM 44.0481 -123.3244 205° Southwest 511 588 41,000  Level Seattle Center
01:06AM 43.9281 -123.4008 255° West 503 579 41,000  Level Seattle Center
01:07AM 43.8956 -123.5697 303° West 477 549 41,000  Level Seattle Center
01:08AM 43.9597 -123.7086 336° Northwest 451 519 41,000  Level Seattle Center
01:09AM 44.0717 -123.7775 339° North 444 511 41,000  Level Seattle Center
01:10AM 44.1833 -123.8372 338° Northwest 437 503 41,000  Level Seattle Center
01:11AM 44.2969 -123.9011 338° Northwest 438 504 41,000  Level Seattle Center
01:12AM 44.4106 -123.9664 338° Northwest 439 505 41,000  Level Seattle Center
01:13AM 44.5236 -124.0306 349° North 438 504 41,000  Level Seattle Center
01:14AM 44.6453 -124.0631 358° North 445 512 41,000  Level Seattle Center
01:15AM 44.7697 -124.0681 359° North 445 512 41,000  Level Seattle Center
01:16AM 44.8956 -124.0725 359° North 447 514 41,000  Level Seattle Center
01:17AM 45.0206 -124.0769 359° North 447 514 41,000  Level Seattle Center
01:18AM 45.1458 -124.0806 359° North 447 514 41,000  Level Seattle Center
01:19AM 45.2694 -124.0847 358° North 444 511 41,000  Level Seattle Center
01:20AM 45.3928 -124.0906 358° North 443 510 41,000  Level Seattle Center
01:21AM 45.5164 -124.0956 358° North 443 510 41,000  Level Seattle Center
01:23AM 45.6403 -124.1006 359° North 444 511 41,000  Level Seattle Center
01:24AM 45.7631 -124.1028 358° North 443 510 41,000  Level Seattle Center
01:25AM 45.8869 -124.1097 359° North 444 511 41,000  Level Seattle Center
01:26AM 46.0128 -124.1139 359° North 449 517 41,000  Level Seattle Center
01:27AM 46.1375 -124.1175 358° North 449 517 41,000  Level Seattle Center
01:28AM 46.2650 -124.1242 358° North 456 525 41,000  Level Seattle Center
01:29AM 46.3900 -124.1300 359° North 452 520 41,000 -60 Level Seattle Center
01:30AM 46.5333 -124.1347 358° North 454 522 40,900  Descending Seattle Center
01:31AM 46.6600 -124.1406 359° North 456 525 41,000  Climbing Seattle Center
01:32AM 46.7875 -124.1450 359° North 459 528 40,900  Descending Seattle Center
01:33AM 46.9150 -124.1492 349° North 459 528 41,000  Climbing Seattle Center
01:34AM 47.0381 -124.1831 347° North 452 520 40,900  Descending Seattle Center
01:35AM 47.1600 -124.2244 347° North 451 519 41,000 -120 Climbing Seattle Center
01:36AM 47.2819 -124.2658 347° North 451 519 40,700 -480 Descending Seattle Center
01:37AM 47.3994 -124.3067 347° North 439 505 40,100 -1,140 Descending Seattle Center
01:38AM 47.5119 -124.3461 347° North 423 487 38,500 -1,740 Descending Seattle Center
01:39AM 47.6231 -124.3850 346° North 413 475 36,600 -1,800 Descending Seattle Center
01:40AM 47.7347 -124.4258 347° North 414 476 34,900 -2,040 Descending Seattle Center
01:41AM 47.8442 -124.4644 347° North 408 470 32,600 -3,000 Descending Seattle Center
01:42AM 47.9586 -124.5044 354° North 421 484 28,900 -3,660 Descending Seattle Center
01:43AM 48.0825 -124.5233 30° Northeast 448 516 25,300 -3,660 Descending Seattle Center
01:44AM 48.1961 -124.4244 70° East 490 564 21,600 -3,120 Descending Seattle Center
01:45AM 48.2400 -124.2381 101° East 494 568 19,100 -2,160 Descending Seattle Center
01:46AM 48.2158 -124.0483 102° East 469 540 17,300 -1,020 Descending Seattle Center
01:47AM 48.1883 -123.8603 103° East 465 535 17,100 -840 Descending Seattle Center
01:48AM 48.1608 -123.6761 103° East 460 529 15,700 -2,040 Descending Seattle Center
01:49AM 48.1286 -123.4658 102° East 438 504 13,100 -1,500 Descending Seattle Center
01:50AM 48.1039 -123.2981 104° East 419 482 12,700 -840 Descending Seattle Center
01:51AM 48.0792 -123.1533 88° East 380 437 11,500 -1,320 Descending Seattle Center
01:51AM 48.0794 -123.1411 104° East 384 442 11,400 -480 Descending Seattle Center
01:52AM 48.0572 -123.0056 135° Southeast 338 389 11,000 -420 Descending Seattle Center
01:52AM 48.0561 -123.0039 103° East 332 382 11,000  Level Seattle Center
01:53AM 48.0381 -122.8850 109° East 311 358 11,000  Level Seattle Center
01:53AM 48.0369 -122.8803 135° Southeast 315 362 11,000 -660 Level Seattle Center
01:54AM 47.9817 -122.7983 151° Southeast 288 331 10,300 -780 Descending Seattle Center
01:54AM 47.9561 -122.7775 147° Southeast 291 335 10,000 -720 Descending Seattle Center
01:55AM 47.9136 -122.7367 154° Southeast 290 334 9,600 -900 Descending Seattle Center
01:55AM 47.8939 -122.7225 147° Southeast 286 329 9,200 -1,800 Descending Seattle Center
01:56AM 47.8475 -122.6772 150° Southeast 283 326 7,800 -2,220 Descending Seattle Center
01:56AM 47.8272 -122.6600 140° Southeast 273 314 7,000 -2,700 Descending Seattle Center
01:57AM 47.7869 -122.6089 114° Southeast 261 300 5,100 -2,640 Descending Seattle Center
01:57AM 47.7803 -122.5869 112° Southeast 258 297 4,400 -1,920 Descending Seattle Center
01:58AM 47.7603 -122.5122 122° Southeast 252 290 3,200 -1,380 Descending Seattle Center
01:58AM 47.7525 -122.4936 148° Southeast 245 282 3,000 -1,020 Descending Seattle Center
01:59AM 47.7167 -122.4600 174° South 204 235 2,200 -1,020 Descending Seattle Center
01:59AM 47.7128 -122.4594 150° Southeast 188 216 2,200  Level Seattle Center
02:00AM 47.6847 -122.4356 148° Southeast 168 193 2,200  Level Seattle Center
02:00AM 47.6764 -122.4278 149° Southeast 175 201 2,200  Level Seattle Center
02:01AM 47.6389 -122.3950 214° Southwest 171 197 2,200  Level Seattle Center
02:01AM 47.6381 -122.3958 150° Southeast 163 188 2,200 -600 Level Seattle Center
02:02AM 47.6025 -122.3658 152° Southeast 145 167 1,600 -720 Descending Seattle Center
02:02AM 47.6000 -122.3639 149° Southeast 145 167 1,500 -840 Descending Seattle Center
02:03AM 47.5731 -122.3397 148° Southeast 126 145 800 -720 Descending Seattle Center
02:03AM 47.5683 -122.3353 151° Southeast 128 147 700 -600 Descending Seattle Center
02:04AM 47.5436 -122.3150 149° Southeast 125 144 200 8,760 Descending Seattle Center
02:05AM 47.5136 -122.2883 149° Southeast 125 144 17,000 16,800 Climbing Seattle Center